Time;durP1;ratioP1;P1;durP2;ratioP2;P2;SDS_P1;SDS_P2;PMS_P1;PMS_P2;Temp;Humidity;BMP_temperature;BMP_pressure;BME280_temperature;BME280_humidity;BME280_pressure;Samples;Min_cycle;Max_cycle;Signal;HPM_P1;HPM_P2
2022/01/04 00:01:31;;;;;;;2.23;1.60;;;8.90;99.90;;;;;;5072619;28;20213;-88
2022/01/04 00:03:59;;;;;;;3.13;1.93;;;8.80;99.90;;;;;;5073876;28;20209;-88
2022/01/04 00:06:26;;;;;;;3.07;2.00;;;8.80;99.90;;;;;;5074198;28;20233;-87
2022/01/04 00:09:00;;;;;;;5.07;2.10;;;8.70;99.90;;;;;;5074116;28;20212;-88
2022/01/04 00:11:44;;;;;;;2.10;1.90;;;8.90;99.90;;;;;;5073954;28;20303;-88
2022/01/04 00:14:19;;;;;;;1.67;1.40;;;8.90;99.90;;;;;;5074147;28;20234;-89
2022/01/04 00:16:50;;;;;;;2.73;1.67;;;8.90;99.90;;;;;;5073746;28;20199;-90
2022/01/04 00:19:23;;;;;;;5.00;1.73;;;8.80;99.90;;;;;;5074146;28;20217;-88
2022/01/04 00:21:53;;;;;;;1.93;1.73;;;8.70;99.90;;;;;;5092507;28;20692;-87
2022/01/04 00:24:22;;;;;;;3.20;2.10;;;8.70;99.90;;;;;;5094137;28;20204;-88
2022/01/04 00:26:55;;;;;;;2.57;2.03;;;8.70;99.90;;;;;;5093860;28;20687;-89
2022/01/04 00:29:27;;;;;;;5.67;2.13;;;8.70;99.90;;;;;;5093686;28;20624;-88
2022/01/04 00:32:01;;;;;;;3.20;2.07;;;8.70;99.90;;;;;;5094074;28;20667;-91
2022/01/04 00:34:31;;;;;;;2.77;2.20;;;8.70;99.90;;;;;;5093838;28;20190;-87
2022/01/04 00:37:01;;;;;;;2.30;2.10;;;8.70;99.90;;;;;;5093662;28;20679;-88
2022/01/04 00:39:34;;;;;;;2.57;2.30;;;8.70;99.90;;;;;;5094109;28;20564;-87
2022/01/04 00:42:26;;;;;;;2.80;2.60;;;8.80;99.90;;;;;;5094055;28;20194;-88
2022/01/04 00:44:56;;;;;;;2.93;2.60;;;8.70;99.90;;;;;;5093364;28;20201;-86
2022/01/04 00:47:37;;;;;;;4.23;2.67;;;8.70;99.90;;;;;;5093719;28;20213;-89
2022/01/04 00:50:05;;;;;;;3.77;2.63;;;8.70;99.90;;;;;;5094271;28;20258;-91
2022/01/04 00:52:45;;;;;;;5.10;2.70;;;8.60;99.90;;;;;;5094085;28;20197;-89
2022/01/04 00:55:18;;;;;;;4.13;3.00;;;8.60;99.90;;;;;;5093774;28;20211;-87
2022/01/04 00:57:48;;;;;;;4.03;3.67;;;8.70;99.90;;;;;;5095335;28;20189;-87
2022/01/04 01:00:22;;;;;;;6.07;2.73;;;8.70;99.90;;;;;;5098113;28;20212;-87
2022/01/04 01:02:53;;;;;;;5.13;3.40;;;8.70;99.90;;;;;;5097534;28;20192;-88
2022/01/04 01:05:45;;;;;;;3.90;3.60;;;8.70;99.90;;;;;;5097488;28;20224;-87
2022/01/04 01:08:18;;;;;;;3.80;3.50;;;8.70;99.90;;;;;;5097569;28;20192;-88
2022/01/04 01:10:51;;;;;;;4.50;4.10;;;8.70;99.90;;;;;;5096646;28;20830;-89
2022/01/04 01:13:23;;;;;;;4.13;3.83;;;8.80;99.90;;;;;;5097610;28;20520;-89
2022/01/04 01:15:56;;;;;;;4.37;4.07;;;8.90;99.90;;;;;;5097283;28;20651;-87
2022/01/04 01:18:30;;;;;;;4.53;4.13;;;8.90;99.90;;;;;;5097577;28;20205;-86
2022/01/04 01:21:00;;;;;;;4.43;4.03;;;8.90;99.90;;;;;;5089269;28;20237;-88
2022/01/04 01:23:31;;;;;;;4.50;4.10;;;8.70;99.90;;;;;;5077014;28;20197;-87
2022/01/04 01:26:14;;;;;;;4.73;4.43;;;8.70;99.90;;;;;;5076579;28;20230;-88
2022/01/04 01:28:46;;;;;;;5.70;5.20;;;8.70;99.90;;;;;;5077155;28;20224;-87
2022/01/04 01:31:17;;;;;;;6.77;5.50;;;8.60;99.90;;;;;;5076687;28;20572;-88
2022/01/04 01:33:49;;;;;;;6.73;6.13;;;8.50;99.90;;;;;;5076851;28;20202;-89
2022/01/04 01:36:17;;;;;;;6.53;6.07;;;8.60;99.90;;;;;;5077077;28;20229;-87
2022/01/04 01:38:50;;;;;;;7.77;7.00;;;8.60;99.90;;;;;;5076855;28;20202;-90
2022/01/04 01:41:19;;;;;;;8.03;7.33;;;8.70;99.90;;;;;;5076347;28;20664;-89
2022/01/04 01:43:52;;;;;;;8.37;7.57;;;8.70;99.90;;;;;;5076344;28;20590;-87
2022/01/04 01:46:25;;;;;;;9.50;8.70;;;8.70;99.90;;;;;;5076244;28;20237;-88
2022/01/04 01:48:59;;;;;;;11.32;10.32;;;8.80;99.90;;;;;;5076155;28;20450;-87
2022/01/04 01:51:30;;;;;;;11.27;10.07;;;8.80;99.90;;;;;;5076829;28;20209;-87
2022/01/04 01:54:01;;;;;;;12.83;10.03;;;8.90;99.90;;;;;;5076485;28;20665;-86
2022/01/04 01:56:31;;;;;;;12.13;10.93;;;8.80;99.90;;;;;;5075052;28;20213;-87
2022/01/04 01:59:01;;;;;;;12.00;10.80;;;8.90;99.90;;;;;;5076156;28;20664;-87
2022/01/04 02:01:28;;;;;;;10.83;9.83;;;8.70;99.90;;;;;;5076517;28;20198;-88
2022/01/04 02:04:02;;;;;;;12.17;11.00;;;8.70;99.90;;;;;;5076645;28;20201;-87
2022/01/04 02:06:31;;;;;;;13.13;11.73;;;8.60;99.90;;;;;;5077060;28;20677;-87
2022/01/04 02:09:01;;;;;;;12.43;11.23;;;8.60;99.90;;;;;;5075558;28;20684;-87
2022/01/04 02:11:29;;;;;;;12.47;11.20;;;8.70;99.90;;;;;;5076739;28;20209;-86
2022/01/04 02:14:03;;;;;;;12.07;10.30;;;8.70;99.90;;;;;;5080612;28;20212;-90
2022/01/04 02:16:33;;;;;;;12.67;10.30;;;8.70;99.90;;;;;;5083104;28;20206;-87
2022/01/04 02:19:08;;;;;;;13.53;10.77;;;8.70;99.90;;;;;;5080318;28;20212;-90
2022/01/04 02:21:41;;;;;;;12.37;11.07;;;8.70;99.90;;;;;;5080181;28;20235;-90
2022/01/04 02:24:09;;;;;;;11.13;9.90;;;8.70;99.90;;;;;;5077857;28;20194;-89
2022/01/04 02:26:36;;;;;;;10.67;9.63;;;8.60;99.90;;;;;;5075547;28;20583;-88
2022/01/04 02:29:03;;;;;;;11.27;10.00;;;8.60;99.90;;;;;;5076206;28;20557;-89
2022/01/04 02:31:31;;;;;;;10.83;9.83;;;8.70;99.90;;;;;;5074658;28;20212;-88
2022/01/04 02:33:59;;;;;;;10.10;8.83;;;8.70;99.90;;;;;;5075936;28;20205;-87
2022/01/04 02:36:29;;;;;;;11.50;9.90;;;8.60;99.90;;;;;;5074395;28;20271;-87
2022/01/04 02:39:04;;;;;;;10.73;9.80;;;8.60;99.90;;;;;;5075805;28;20694;-88
2022/01/04 02:41:37;;;;;;;11.77;10.73;;;8.70;99.90;;;;;;5075368;28;20201;-89
2022/01/04 02:44:13;;;;;;;11.17;10.07;;;8.70;99.90;;;;;;5073965;28;20575;-88
2022/01/04 02:46:40;;;;;;;12.97;9.03;;;8.60;99.90;;;;;;5075388;28;20252;-87
2022/01/04 02:49:07;;;;;;;10.67;9.80;;;8.70;99.90;;;;;;5075105;28;20228;-87
2022/01/04 02:51:38;;;;;;;10.30;9.50;;;8.60;99.90;;;;;;5075592;28;20214;-88
2022/01/04 02:54:09;;;;;;;10.30;9.27;;;8.70;99.90;;;;;;5073742;28;20209;-88
2022/01/04 02:56:38;;;;;;;10.40;9.30;;;8.60;99.90;;;;;;5075237;28;20202;-87
2022/01/04 02:59:08;;;;;;;10.13;9.13;;;8.70;99.90;;;;;;5075117;28;20224;-87
2022/01/04 03:01:37;;;;;;;10.27;8.73;;;8.80;99.90;;;;;;5075199;28;20206;-88
2022/01/04 03:04:07;;;;;;;9.83;8.93;;;8.70;99.90;;;;;;5073843;28;20267;-89
2022/01/04 03:06:40;;;;;;;9.90;9.00;;;8.70;99.90;;;;;;5074969;28;20229;-88
2022/01/04 03:09:15;;;;;;;8.83;8.03;;;8.70;99.90;;;;;;5074474;28;20201;-87
2022/01/04 03:11:45;;;;;;;9.27;8.43;;;8.70;99.90;;;;;;5074975;28;20198;-88
2022/01/04 03:14:17;;;;;;;11.73;8.47;;;8.60;99.90;;;;;;5074850;28;20289;-87
2022/01/04 03:16:58;;;;;;;9.17;8.33;;;8.60;99.90;;;;;;5081030;28;20209;-89
2022/01/04 03:19:35;;;;;;;8.67;7.87;;;8.60;99.90;;;;;;5094670;28;20667;-87
2022/01/04 03:22:08;;;;;;;8.67;7.63;;;8.70;99.90;;;;;;5094925;28;20232;-85
2022/01/04 03:24:39;;;;;;;9.73;8.17;;;8.70;99.90;;;;;;5093422;28;20205;-87
2022/01/04 03:27:13;;;;;;;9.07;8.30;;;8.70;99.90;;;;;;5094459;28;20229;-86
2022/01/04 03:29:42;;;;;;;9.70;8.70;;;8.70;99.90;;;;;;5094834;28;20201;-87
2022/01/04 03:32:16;;;;;;;9.27;8.43;;;8.80;99.90;;;;;;5094638;28;20219;-87
2022/01/04 03:34:45;;;;;;;9.23;8.33;;;8.80;99.90;;;;;;5094864;28;20219;-87
2022/01/04 03:37:22;;;;;;;8.73;7.83;;;8.80;99.90;;;;;;5094401;28;20213;-86
2022/01/04 03:43:15;;;;;;;8.77;7.47;;;8.70;99.90;;;;;;5094426;28;20269;-87
2022/01/04 03:45:48;;;;;;;9.30;8.33;;;8.70;99.90;;;;;;5094377;28;20208;-87
2022/01/04 03:48:15;;;;;;;10.27;8.20;;;8.70;99.90;;;;;;5094202;28;20213;-90
2022/01/04 03:50:57;;;;;;;9.40;8.50;;;8.70;99.90;;;;;;5094427;28;20243;-88
2022/01/04 03:53:31;;;;;;;9.70;8.70;;;8.70;99.90;;;;;;5093943;28;20578;-89
2022/01/04 03:56:00;;;;;;;12.23;9.70;;;8.70;99.90;;;;;;5094163;28;20191;-89
2022/01/04 03:58:31;;;;;;;10.87;9.57;;;8.70;99.90;;;;;;5094135;28;20651;-88
2022/01/04 04:00:58;;;;;;;10.63;9.00;;;8.60;99.90;;;;;;5094145;28;20201;-89
2022/01/04 04:03:28;;;;;;;10.13;9.10;;;8.50;99.90;;;;;;5094187;28;20628;-87
2022/01/04 04:05:57;;;;;;;13.10;9.40;;;8.60;99.90;;;;;;5093543;28;20224;-89
2022/01/04 04:08:30;;;;;;;10.43;9.17;;;8.60;99.90;;;;;;5093734;28;20205;-87
2022/01/04 04:11:04;;;;;;;9.77;8.87;;;8.60;99.90;;;;;;5094554;28;20205;-87
2022/01/04 04:13:39;;;;;;;9.93;8.90;;;8.50;99.90;;;;;;5094003;28;20212;-88
2022/01/04 04:16:11;;;;;;;11.17;9.27;;;8.50;99.90;;;;;;5094115;28;20201;-87
2022/01/04 04:18:38;;;;;;;10.90;9.10;;;8.60;99.90;;;;;;5094104;28;20628;-86
2022/01/04 04:21:06;;;;;;;10.87;9.63;;;8.70;99.90;;;;;;5093899;28;20200;-88
2022/01/04 04:23:33;;;;;;;11.60;10.68;;;8.70;99.90;;;;;;5093126;28;20771;-87
2022/01/04 04:26:08;;;;;;;10.83;9.70;;;8.80;99.90;;;;;;5093778;28;20297;-87
2022/01/04 04:28:39;;;;;;;10.17;9.20;;;8.80;99.90;;;;;;5093902;28;20612;-87
2022/01/04 04:31:07;;;;;;;9.67;8.67;;;8.70;99.90;;;;;;5094091;28;20215;-89
2022/01/04 04:33:38;;;;;;;9.23;7.80;;;8.60;99.90;;;;;;5093632;28;20215;-90
2022/01/04 04:36:08;;;;;;;10.07;7.83;;;8.70;99.90;;;;;;5093704;28;20643;-86
2022/01/04 04:38:38;;;;;;;9.30;8.37;;;8.70;99.90;;;;;;5093959;28;20223;-87
2022/01/04 04:41:10;;;;;;;12.10;8.40;;;8.70;99.90;;;;;;5093955;28;20245;-88
2022/01/04 04:43:45;;;;;;;9.63;7.80;;;8.70;99.90;;;;;;5093725;28;20659;-88
2022/01/04 04:46:14;;;;;;;8.50;7.23;;;8.60;99.90;;;;;;5093512;28;20660;-89
2022/01/04 04:48:44;;;;;;;8.43;7.63;;;8.60;99.90;;;;;;5093652;28;20657;-89
2022/01/04 04:51:17;;;;;;;8.40;7.63;;;8.70;99.90;;;;;;5093444;28;20201;-86
2022/01/04 04:53:50;;;;;;;7.73;7.10;;;8.70;99.90;;;;;;5093639;28;20205;-87
2022/01/04 04:56:18;;;;;;;10.87;8.53;;;8.70;99.90;;;;;;5093459;28;20207;-88
2022/01/04 04:58:49;;;;;;;9.43;7.63;;;8.70;99.90;;;;;;5093750;28;20209;-88
2022/01/04 05:01:22;;;;;;;9.53;8.10;;;8.60;99.90;;;;;;5093476;28;20197;-88
2022/01/04 05:03:52;;;;;;;8.57;7.70;;;8.60;99.90;;;;;;5093585;28;20201;-88
2022/01/04 05:06:22;;;;;;;8.60;7.67;;;8.50;99.90;;;;;;5093489;28;20227;-90
2022/01/04 05:08:51;;;;;;;10.87;8.33;;;8.40;99.90;;;;;;5093980;28;20549;-89
2022/01/04 05:11:21;;;;;;;8.40;7.53;;;8.40;99.90;;;;;;5093264;28;20201;-88
2022/01/04 05:13:52;;;;;;;11.10;8.83;;;8.50;99.90;;;;;;5093399;28;20211;-89
2022/01/04 05:16:19;;;;;;;9.83;8.83;;;8.60;99.90;;;;;;5093655;28;20201;-88
2022/01/04 05:18:49;;;;;;;10.57;9.33;;;8.60;99.90;;;;;;5092952;28;20193;-88
2022/01/04 05:21:22;;;;;;;10.00;8.77;;;8.50;99.90;;;;;;5093503;28;20220;-88
2022/01/04 05:23:54;;;;;;;15.20;9.70;;;8.50;99.90;;;;;;5093159;28;20185;-87
2022/01/04 05:26:23;;;;;;;12.73;9.80;;;8.60;99.90;;;;;;5093252;28;20250;-87
2022/01/04 05:28:57;;;;;;;10.43;9.07;;;8.70;99.90;;;;;;5093405;28;20205;-91
2022/01/04 05:31:27;;;;;;;10.23;9.13;;;8.70;99.90;;;;;;5093571;28;20574;-89
2022/01/04 05:33:57;;;;;;;11.33;10.13;;;8.70;99.90;;;;;;5093406;28;20231;-90
2022/01/04 05:36:24;;;;;;;14.20;10.03;;;8.60;99.90;;;;;;5094015;28;20197;-90
2022/01/04 05:38:58;;;;;;;11.23;9.73;;;8.70;99.90;;;;;;5095407;28;20209;-90
2022/01/04 05:41:44;;;;;;;14.33;10.13;;;8.60;99.90;;;;;;5093853;28;20216;-89
2022/01/04 05:44:15;;;;;;;14.47;10.67;;;8.70;99.90;;;;;;5094137;28;20204;-89
2022/01/04 05:46:48;;;;;;;16.43;11.73;;;8.80;99.90;;;;;;5097062;28;20227;-91
2022/01/04 05:49:21;;;;;;;13.63;10.40;;;8.80;99.90;;;;;;5096601;28;20213;-90
2022/01/04 05:51:49;;;;;;;15.97;11.13;;;8.70;99.90;;;;;;5096574;28;20193;-90
2022/01/04 05:54:19;;;;;;;17.93;11.93;;;8.60;99.90;;;;;;5097788;27;20211;-91
2022/01/04 05:57:05;;;;;;;17.73;11.30;;;8.70;99.90;;;;;;5096598;28;20243;-89
2022/01/04 05:59:37;;;;;;;17.07;11.87;;;8.70;99.90;;;;;;5096531;28;20209;-89
2022/01/04 06:02:05;;;;;;;17.90;12.03;;;8.70;99.90;;;;;;5079035;28;20206;-89
2022/01/04 06:04:34;;;;;;;18.87;11.03;;;8.70;99.90;;;;;;5074832;28;20206;-91
2022/01/04 06:07:01;;;;;;;18.07;11.80;;;8.60;99.90;;;;;;5074553;28;20229;-90
2022/01/04 06:09:40;;;;;;;23.70;12.63;;;8.70;99.90;;;;;;5074903;28;20205;-89
2022/01/04 06:14:58;;;;;;;20.53;13.53;;;8.80;99.90;;;;;;5076254;28;20189;-92
2022/01/04 06:17:45;;;;;;;21.93;13.53;;;8.80;99.90;;;;;;5076156;28;20209;-90
2022/01/04 06:20:21;;;;;;;24.88;17.13;;;8.90;99.90;;;;;;5075233;28;20550;-91
2022/01/04 06:22:50;;;;;;;24.90;14.57;;;9.00;99.90;;;;;;5075943;28;20320;-92
2022/01/04 06:25:20;;;;;;;20.57;13.37;;;9.10;99.90;;;;;;5093997;28;20662;-91
2022/01/04 06:27:56;;;;;;;23.10;13.63;;;9.00;99.90;;;;;;5095842;28;20229;-91
2022/01/04 06:30:27;;;;;;;25.53;14.13;;;8.90;99.90;;;;;;5095930;28;20236;-89
2022/01/04 06:32:57;;;;;;;24.07;13.97;;;9.00;99.90;;;;;;5094522;28;20213;-90
2022/01/04 06:35:25;;;;;;;24.20;14.67;;;9.00;99.90;;;;;;5095672;28;20201;-91
2022/01/04 06:37:54;;;;;;;23.60;14.10;;;9.00;99.90;;;;;;5095752;28;20207;-90
2022/01/04 06:40:24;;;;;;;24.07;14.37;;;9.10;99.90;;;;;;5096241;28;20220;-92
2022/01/04 06:42:57;;;;;;;24.03;13.87;;;9.00;99.90;;;;;;5096030;28;20189;-92
2022/01/04 06:45:28;;;;;;;21.70;13.87;;;9.00;99.90;;;;;;5098340;28;20201;-88
2022/01/04 06:48:11;;;;;;;28.67;14.90;;;9.00;99.90;;;;;;5096086;28;20239;-87
2022/01/04 06:50:39;;;;;;;26.90;13.97;;;9.00;99.90;;;;;;5095246;28;20215;-85
2022/01/04 06:53:12;;;;;;;24.97;14.57;;;9.00;99.90;;;;;;5095230;28;20193;-83
2022/01/04 06:55:40;;;;;;;26.40;14.60;;;9.10;99.90;;;;;;5087831;28;20221;-88
2022/01/04 06:58:10;;;;;;;30.42;19.02;;;9.10;99.90;;;;;;5087410;28;20449;-85
2022/01/04 07:00:38;;;;;;;30.53;16.83;;;9.30;99.90;;;;;;5094205;28;20205;-84
2022/01/04 07:03:10;;;;;;;27.13;14.30;;;9.30;99.90;;;;;;5094806;28;20209;-83
2022/01/04 07:05:39;;;;;;;26.33;14.73;;;8.90;99.90;;;;;;5094451;28;20193;-82
2022/01/04 07:08:06;;;;;;;28.03;14.57;;;8.90;99.90;;;;;;5094899;28;20221;-85
2022/01/04 07:10:33;;;;;;;25.53;14.50;;;8.80;99.90;;;;;;5093969;28;20304;-83
2022/01/04 07:13:00;;;;;;;28.73;14.93;;;8.80;99.90;;;;;;5094579;28;20193;-83
2022/01/04 07:15:27;;;;;;;31.47;14.57;;;8.80;99.90;;;;;;5094156;28;20205;-83
2022/01/04 07:17:55;;;;;;;28.70;16.00;;;8.70;99.90;;;;;;5094521;28;20375;-85
2022/01/04 07:20:24;;;;;;;31.40;15.67;;;8.60;99.90;;;;;;5094513;28;20212;-84
2022/01/04 07:22:56;;;;;;;33.53;16.43;;;8.50;99.90;;;;;;5094547;28;20584;-83
2022/01/04 07:25:24;;;;;;;34.93;16.17;;;8.40;99.90;;;;;;5092766;28;20576;-89
2022/01/04 07:27:51;;;;;;;35.57;16.00;;;8.40;99.90;;;;;;5091891;28;20220;-88
2022/01/04 07:30:17;;;;;;;34.97;16.20;;;8.60;99.90;;;;;;5078987;28;20202;-86
2022/01/04 07:32:45;;;;;;;32.60;16.20;;;8.70;99.90;;;;;;5073829;28;20202;-85
2022/01/04 07:35:15;;;;;;;29.23;16.40;;;8.60;99.90;;;;;;5087429;28;20194;-80
2022/01/04 07:37:42;;;;;;;32.23;15.73;;;8.60;99.90;;;;;;5093178;28;20196;-83
2022/01/04 07:40:15;;;;;;;33.00;14.97;;;8.60;99.90;;;;;;5094238;28;20194;-83
2022/01/04 07:42:48;;;;;;;27.80;14.50;;;8.70;99.90;;;;;;5094045;28;20201;-85
2022/01/04 07:45:15;;;;;;;32.47;15.13;;;8.60;99.90;;;;;;5088317;28;20215;-88
2022/01/04 07:47:43;;;;;;;31.80;15.33;;;8.60;99.90;;;;;;5087934;28;20209;-82
2022/01/04 07:50:10;;;;;;;30.20;14.30;;;8.60;99.90;;;;;;5085641;28;20285;-83
2022/01/04 07:52:41;;;;;;;28.93;14.27;;;8.50;99.90;;;;;;5086384;28;20275;-86
2022/01/04 07:55:09;;;;;;;27.77;13.20;;;8.70;99.90;;;;;;5090648;28;20201;-87
2022/01/04 07:57:36;;;;;;;23.27;13.27;;;8.60;99.90;;;;;;5080760;28;20192;-83
2022/01/04 08:00:08;;;;;;;25.37;13.00;;;8.60;99.90;;;;;;5073016;28;20210;-89
2022/01/04 08:02:40;;;;;;;23.23;12.50;;;8.60;99.90;;;;;;5073999;28;20209;-91
2022/01/04 08:05:15;;;;;;;24.60;12.17;;;8.60;99.90;;;;;;5074073;28;20198;-90
2022/01/04 08:07:52;;;;;;;24.60;13.70;;;8.50;99.90;;;;;;5073821;28;20243;-89
2022/01/04 08:10:25;;;;;;;21.30;11.83;;;8.40;99.90;;;;;;5074054;28;20660;-90
2022/01/04 08:12:52;;;;;;;30.33;15.23;;;8.40;99.90;;;;;;5088627;28;20205;-90
2022/01/04 08:15:19;;;;;;;20.83;12.13;;;8.50;99.90;;;;;;5087926;28;20197;-91
2022/01/04 08:17:47;;;;;;;21.73;11.00;;;8.40;99.90;;;;;;5094530;28;20721;-89
2022/01/04 08:20:17;;;;;;;18.43;11.73;;;8.40;99.90;;;;;;5093560;28;20265;-93
2022/01/04 08:22:43;;;;;;;18.87;11.33;;;8.40;99.90;;;;;;5094191;28;20226;-87
2022/01/04 08:25:12;;;;;;;17.43;10.63;;;8.50;99.90;;;;;;5088633;28;20208;-85
2022/01/04 08:27:40;;;;;;;20.47;10.93;;;8.60;99.90;;;;;;5092607;28;20231;-84
2022/01/04 08:30:10;;;;;;;22.00;12.10;;;8.70;99.90;;;;;;5093454;28;20195;-84
2022/01/04 08:32:38;;;;;;;15.73;10.87;;;8.60;99.90;;;;;;5093432;28;20310;-85
2022/01/04 08:35:08;;;;;;;19.00;11.03;;;8.60;99.90;;;;;;5093496;28;20194;-86
2022/01/04 08:37:35;;;;;;;17.80;10.23;;;8.70;99.90;;;;;;5089212;28;20186;-86
2022/01/04 08:40:04;;;;;;;15.37;10.97;;;8.70;99.90;;;;;;5098617;28;20205;-84
2022/01/04 08:42:34;;;;;;;16.30;10.33;;;8.70;99.90;;;;;;5096252;28;20224;-86
2022/01/04 08:45:04;;;;;;;18.27;10.80;;;8.60;99.90;;;;;;5097983;28;20202;-85
2022/01/04 08:47:32;;;;;;;14.00;9.20;;;8.60;99.90;;;;;;5096190;28;20193;-86
2022/01/04 08:49:59;;;;;;;17.30;9.70;;;8.60;99.90;;;;;;5096984;28;20596;-85
2022/01/04 08:52:32;;;;;;;13.32;10.20;;;8.50;99.90;;;;;;5095231;28;20426;-87
2022/01/04 08:55:02;;;;;;;12.30;10.07;;;8.50;99.90;;;;;;5092585;28;20201;-88
2022/01/04 08:57:36;;;;;;;12.67;9.27;;;8.60;99.90;;;;;;5093861;28;20555;-85
2022/01/04 09:00:11;;;;;;;10.70;9.70;;;8.50;99.90;;;;;;5094989;28;20555;-90
2022/01/04 09:02:51;;;;;;;10.73;9.67;;;8.50;99.90;;;;;;5094609;28;20206;-89
2022/01/04 09:05:18;;;;;;;10.30;8.90;;;8.40;99.90;;;;;;5094604;28;20656;-86
2022/01/04 09:07:47;;;;;;;11.13;9.37;;;8.40;99.90;;;;;;5093081;28;20216;-86
2022/01/04 09:10:15;;;;;;;9.57;8.30;;;8.40;99.90;;;;;;5081994;28;20731;-83
2022/01/04 09:12:57;;;;;;;9.60;8.63;;;8.40;99.90;;;;;;5074014;28;20642;-88
2022/01/04 09:15:32;;;;;;;9.87;8.87;;;8.40;99.90;;;;;;5074224;28;20281;-86
2022/01/04 09:20:48;;;;;;;9.90;8.90;;;8.40;99.90;;;;;;5078934;28;20217;-86
2022/01/04 09:23:20;;;;;;;10.27;9.20;;;8.50;99.90;;;;;;5078552;28;20607;-88
2022/01/04 09:25:51;;;;;;;10.13;8.20;;;8.50;99.90;;;;;;5077975;28;20255;-86
2022/01/04 09:28:23;;;;;;;9.70;8.80;;;8.40;99.90;;;;;;5079344;28;20236;-91
2022/01/04 09:30:52;;;;;;;8.70;7.23;;;8.40;99.90;;;;;;5077316;28;20285;-86
2022/01/04 09:33:22;;;;;;;7.47;6.77;;;8.50;99.90;;;;;;5077884;28;20194;-87
2022/01/04 09:35:52;;;;;;;7.43;6.70;;;8.50;99.90;;;;;;5078756;28;20201;-86
2022/01/04 09:38:24;;;;;;;8.07;6.63;;;8.50;99.90;;;;;;5078331;28;20657;-87
2022/01/04 09:40:55;;;;;;;7.60;6.20;;;8.50;99.90;;;;;;5077334;28;20209;-90
2022/01/04 09:43:26;;;;;;;9.23;6.50;;;8.60;99.90;;;;;;5077974;28;20205;-89
2022/01/04 09:45:53;;;;;;;6.67;6.07;;;8.50;99.90;;;;;;5077828;28;20202;-90
2022/01/04 09:48:21;;;;;;;7.47;6.50;;;8.50;99.90;;;;;;5076258;28;20240;-89
2022/01/04 09:50:50;;;;;;;6.83;6.17;;;8.50;99.90;;;;;;5076479;28;20968;-90
2022/01/04 09:53:21;;;;;;;10.03;7.47;;;8.60;99.90;;;;;;5077334;28;20194;-83
2022/01/04 09:55:56;;;;;;;7.23;6.53;;;8.60;99.90;;;;;;5077250;28;20194;-89
2022/01/04 09:58:26;;;;;;;13.27;6.33;;;8.60;99.90;;;;;;5077255;28;20209;-85
2022/01/04 10:00:56;;;;;;;6.97;6.17;;;8.70;99.90;;;;;;5076905;28;20216;-85
2022/01/04 10:03:29;;;;;;;6.47;5.90;;;8.70;99.90;;;;;;5076601;28;20213;-87
2022/01/04 10:06:15;;;;;;;6.43;5.67;;;8.80;99.90;;;;;;5076877;28;20209;-88
2022/01/04 10:08:53;;;;;;;6.13;5.63;;;8.80;99.90;;;;;;5076559;28;20197;-83
2022/01/04 10:11:31;;;;;;;8.50;5.47;;;8.80;99.90;;;;;;5076084;28;20202;-90
2022/01/04 10:14:03;;;;;;;5.67;4.90;;;8.80;99.90;;;;;;5077758;28;20190;-90
2022/01/04 10:16:30;;;;;;;9.17;4.60;;;8.80;99.90;;;;;;5076320;28;20205;-84
2022/01/04 10:19:02;;;;;;;5.40;5.00;;;8.80;99.90;;;;;;5076719;28;20205;-81
2022/01/04 10:21:31;;;;;;;5.73;4.73;;;8.80;99.90;;;;;;5076558;28;20222;-81
2022/01/04 10:24:00;;;;;;;5.10;4.70;;;8.80;99.90;;;;;;5075690;28;20208;-86
2022/01/04 10:26:30;;;;;;;6.30;4.87;;;8.90;99.90;;;;;;5075456;28;20186;-80
2022/01/04 10:28:58;;;;;;;5.10;4.60;;;8.90;99.90;;;;;;5075161;28;20585;-80
2022/01/04 10:31:28;;;;;;;5.17;4.70;;;8.90;99.90;;;;;;5074379;28;20225;-80
2022/01/04 10:33:57;;;;;;;5.97;4.57;;;8.90;99.90;;;;;;5075472;28;20661;-80
2022/01/04 10:36:25;;;;;;;5.00;4.60;;;8.90;99.90;;;;;;5077620;28;20210;-87
2022/01/04 10:38:55;;;;;;;8.63;4.40;;;8.90;99.90;;;;;;5077422;28;20638;-84
2022/01/04 10:41:25;;;;;;;5.27;4.57;;;8.90;99.90;;;;;;5075823;28;20212;-81
2022/01/04 10:43:55;;;;;;;5.43;4.90;;;9.00;99.90;;;;;;5074418;28;20243;-81
2022/01/04 10:46:34;;;;;;;5.63;4.70;;;9.10;99.90;;;;;;5074778;28;20240;-85
2022/01/04 10:49:01;;;;;;;5.63;4.90;;;9.20;99.90;;;;;;5074827;28;20235;-85
2022/01/04 10:51:30;;;;;;;6.77;4.33;;;9.20;99.90;;;;;;5075479;28;20201;-84
2022/01/04 10:54:06;;;;;;;4.97;4.57;;;9.30;99.90;;;;;;5075041;28;20241;-85
2022/01/04 10:56:37;;;;;;;5.40;4.07;;;9.40;99.90;;;;;;5075850;28;20227;-80
2022/01/04 10:59:07;;;;;;;7.63;4.00;;;9.40;99.90;;;;;;5074096;28;20201;-82
2022/01/04 11:01:42;;;;;;;6.90;4.03;;;9.40;99.90;;;;;;5079497;28;20209;-86
2022/01/04 11:04:13;;;;;;;4.80;4.03;;;9.40;99.90;;;;;;5079236;28;20231;-86
2022/01/04 11:06:43;;;;;;;5.00;4.13;;;9.40;99.90;;;;;;5077232;28;20246;-86
2022/01/04 11:09:11;;;;;;;5.47;3.60;;;9.40;99.90;;;;;;5078216;28;20226;-85
2022/01/04 11:11:41;;;;;;;5.83;3.60;;;9.40;99.90;;;;;;5077496;28;20189;-81
2022/01/04 11:14:09;;;;;;;4.33;3.90;;;9.30;99.90;;;;;;5072970;28;20244;-89
2022/01/04 11:16:36;;;;;;;4.10;3.70;;;9.30;99.90;;;;;;5093820;28;20292;-89
2022/01/04 11:19:07;;;;;;;6.67;3.50;;;9.30;99.90;;;;;;5084219;28;20205;-86
2022/01/04 11:21:36;;;;;;;5.07;3.50;;;9.20;99.90;;;;;;5084355;28;20227;-88
2022/01/04 11:24:07;;;;;;;5.60;3.50;;;9.20;99.90;;;;;;5094678;28;20562;-89
2022/01/04 11:26:40;;;;;;;6.33;3.77;;;9.20;99.90;;;;;;5089789;28;20197;-88
2022/01/04 11:29:15;;;;;;;6.37;4.20;;;9.20;99.90;;;;;;5075539;28;20209;-88
2022/01/04 11:31:53;;;;;;;7.70;3.70;;;9.10;99.90;;;;;;5075144;28;20200;-88
2022/01/04 11:34:42;;;;;;;5.87;3.60;;;9.10;99.90;;;;;;5075516;28;20213;-87
2022/01/04 11:37:18;;;;;;;5.83;3.77;;;9.10;99.90;;;;;;5075328;28;20201;-85
2022/01/04 11:39:52;;;;;;;10.53;4.60;;;9.10;99.90;;;;;;5075001;28;20213;-84
2022/01/04 11:42:36;;;;;;;4.43;4.03;;;9.10;99.90;;;;;;5081775;28;20205;-87
2022/01/04 11:45:07;;;;;;;5.70;3.80;;;9.20;99.90;;;;;;5079677;28;20198;-89
2022/01/04 11:47:37;;;;;;;6.73;4.20;;;9.20;99.90;;;;;;5076473;28;20210;-88
2022/01/04 11:50:13;;;;;;;6.40;3.93;;;9.30;99.90;;;;;;5094445;28;20251;-88
2022/01/04 11:52:43;;;;;;;5.67;3.87;;;9.30;99.90;;;;;;5094906;28;20196;-87
2022/01/04 11:55:24;;;;;;;7.60;4.27;;;9.20;99.90;;;;;;5094335;28;20201;-89
2022/01/04 11:57:57;;;;;;;5.33;3.90;;;9.30;99.90;;;;;;5094646;28;20256;-87
2022/01/04 12:00:31;;;;;;;5.73;4.30;;;9.30;99.90;;;;;;5094486;28;20229;-87
2022/01/04 12:03:09;;;;;;;7.30;4.10;;;9.30;99.90;;;;;;5090036;28;20217;-90
2022/01/04 12:05:59;;;;;;;6.43;3.90;;;9.30;99.90;;;;;;5074623;28;20280;-91
2022/01/04 12:08:35;;;;;;;5.93;4.37;;;9.30;99.90;;;;;;5074201;28;20271;-89
2022/01/04 12:11:19;;;;;;;9.30;4.53;;;9.30;99.90;;;;;;5074260;28;20201;-87
2022/01/04 12:13:50;;;;;;;5.20;4.17;;;9.30;99.90;;;;;;5074902;28;20206;-87
2022/01/04 12:16:31;;;;;;;10.93;4.77;;;9.30;99.90;;;;;;5073635;28;20565;-86
2022/01/04 12:19:09;;;;;;;8.43;4.60;;;9.40;99.90;;;;;;5073792;28;20209;-85
2022/01/04 12:21:49;;;;;;;6.17;4.63;;;9.50;99.90;;;;;;5072256;28;20221;-88
2022/01/04 12:24:42;;;;;;;6.57;5.00;;;9.40;99.90;;;;;;5073497;28;20198;-89
2022/01/04 12:27:11;;;;;;;5.43;4.33;;;9.50;99.90;;;;;;5073528;28;20205;-88
2022/01/04 12:29:38;;;;;;;4.80;4.20;;;9.60;99.90;;;;;;5072183;28;20230;-88
2022/01/04 12:32:09;;;;;;;4.53;4.13;;;9.60;99.90;;;;;;5072491;28;20228;-87
2022/01/04 12:35:06;;;;;;;7.63;5.03;;;9.60;99.90;;;;;;5074110;28;20233;-89
2022/01/04 12:37:40;;;;;;;7.07;3.97;;;9.50;99.90;;;;;;5074111;28;20193;-89
2022/01/04 12:40:13;;;;;;;7.97;3.73;;;9.50;99.90;;;;;;5073366;28;20207;-87
2022/01/04 12:42:45;;;;;;;5.30;3.97;;;9.40;99.90;;;;;;5073968;28;20204;-90
2022/01/04 12:45:14;;;;;;;6.97;4.57;;;9.40;99.90;;;;;;5073409;28;20431;-88
2022/01/04 12:47:50;;;;;;;6.33;3.73;;;9.40;99.90;;;;;;5073767;28;20227;-87
2022/01/04 12:50:18;;;;;;;5.00;3.10;;;9.50;99.90;;;;;;5073454;28;20331;-88
2022/01/04 12:52:51;;;;;;;6.57;3.30;;;9.40;99.90;;;;;;5073955;28;20209;-88
2022/01/04 12:55:18;;;;;;;6.37;3.17;;;9.30;99.90;;;;;;5077507;28;20210;-85
2022/01/04 12:57:45;;;;;;;3.97;3.07;;;9.30;99.90;;;;;;5077203;28;20205;-87
2022/01/04 13:00:15;;;;;;;9.20;3.40;;;9.30;99.90;;;;;;5077311;28;20645;-86
2022/01/04 13:02:42;;;;;;;4.20;2.97;;;9.20;99.90;;;;;;5077252;28;20296;-85
2022/01/04 13:05:11;;;;;;;8.27;3.30;;;9.20;99.90;;;;;;5077841;28;20201;-83
2022/01/04 13:07:39;;;;;;;5.63;3.47;;;9.00;99.90;;;;;;5077445;28;20668;-80
2022/01/04 13:10:10;;;;;;;8.27;4.17;;;8.90;99.90;;;;;;5077967;28;20227;-84
2022/01/04 13:12:39;;;;;;;6.07;3.97;;;8.80;99.90;;;;;;5076392;28;20592;-83
2022/01/04 13:15:08;;;;;;;7.10;3.90;;;8.80;99.90;;;;;;5076280;28;20205;-82
2022/01/04 13:17:37;;;;;;;4.90;3.17;;;8.70;99.90;;;;;;5076379;28;20198;-81
2022/01/04 13:20:05;;;;;;;5.27;3.40;;;8.60;99.90;;;;;;5077083;28;20593;-83
2022/01/04 13:22:31;;;;;;;4.40;3.80;;;8.60;99.90;;;;;;5076683;28;20232;-83